createdAt,value
2023-01-03T00:00:06.980Z,2.80
2023-01-03T00:02:53.300Z,2.80
2023-01-03T00:05:39.951Z,2.80
2023-01-03T00:08:27.374Z,2.80
2023-01-03T00:11:15.436Z,3.10
2023-01-03T00:14:01.827Z,2.80
2023-01-03T00:16:51.832Z,2.80
2023-01-03T00:19:41.683Z,3.00
2023-01-03T00:22:31.638Z,2.80
2023-01-03T00:25:18.621Z,2.80
2023-01-03T00:28:05.028Z,2.80
2023-01-03T00:30:51.049Z,2.80
2023-01-03T00:33:39.109Z,2.80
2023-01-03T00:36:25.363Z,2.80
2023-01-03T00:39:12.121Z,3.40
2023-01-03T00:42:00.215Z,3.10
2023-01-03T00:44:46.205Z,3.40
2023-01-03T00:47:32.269Z,2.90
2023-01-03T00:50:18.107Z,3.30
2023-01-03T00:53:04.699Z,3.50
2023-01-03T00:55:50.848Z,3.10
2023-01-03T00:58:37.757Z,3.20
2023-01-03T01:01:46.164Z,3.40
2023-01-03T01:04:33.309Z,3.40
2023-01-03T01:07:19.373Z,3.50
2023-01-03T01:10:05.741Z,3.60
2023-01-03T01:12:56.081Z,3.70
2023-01-03T01:15:42.668Z,3.90
2023-01-03T01:18:29.420Z,4.00
2023-01-03T01:21:22.189Z,4.10
2023-01-03T01:24:12.798Z,4.60
2023-01-03T01:27:01.890Z,4.60
2023-01-03T01:29:47.956Z,4.60
2023-01-03T01:32:33.721Z,5.00
2023-01-03T01:35:19.623Z,5.20
2023-01-03T01:38:05.688Z,5.00
2023-01-03T01:40:51.646Z,5.10
2023-01-03T01:44:16.918Z,5.10
2023-01-03T01:47:03.511Z,5.20
2023-01-03T01:49:55.900Z,5.30
2023-01-03T01:52:51.068Z,5.30
2023-01-03T01:55:55.235Z,5.50
2023-01-03T01:58:44.300Z,5.50
2023-01-03T02:01:31.642Z,5.60
2023-01-03T02:04:22.222Z,5.60
2023-01-03T02:07:08.370Z,5.80
2023-01-03T02:09:57.593Z,5.60
2023-01-03T02:13:06.875Z,5.60
2023-01-03T02:16:02.179Z,5.50
2023-01-03T02:18:57.235Z,5.50
2023-01-03T02:22:01.795Z,5.50
2023-01-03T02:24:53.252Z,5.60
2023-01-03T02:28:07.288Z,5.60
2023-01-03T02:31:12.788Z,5.70
2023-01-03T02:34:08.990Z,5.70
2023-01-03T02:37:20.033Z,5.70
2023-01-03T02:40:27.727Z,5.80
2023-01-03T02:43:18.648Z,5.80
2023-01-03T02:46:09.746Z,5.90
2023-01-03T02:49:22.105Z,5.90
2023-01-03T02:52:12.546Z,5.90
2023-01-03T02:55:05.212Z,6.00
2023-01-03T02:58:10.996Z,6.00
2023-01-03T03:01:02.019Z,6.00
2023-01-03T03:03:51.100Z,6.20
2023-01-03T03:06:53.506Z,6.40
2023-01-03T03:09:59.467Z,6.30
2023-01-03T03:13:08.969Z,6.30
2023-01-03T03:16:19.635Z,6.40
2023-01-03T03:19:46.634Z,6.40
2023-01-03T03:23:14.942Z,6.40
2023-01-03T03:26:16.899Z,6.50
2023-01-03T03:29:12.661Z,6.50
2023-01-03T03:31:58.591Z,6.60
2023-01-03T03:34:50.008Z,6.60
2023-01-03T03:37:38.087Z,6.60
2023-01-03T03:40:47.856Z,6.60
2023-01-03T03:44:02.018Z,6.60
2023-01-03T03:46:55.978Z,6.60
2023-01-03T03:49:45.850Z,6.50
2023-01-03T03:52:33.856Z,6.50
2023-01-03T03:55:30.606Z,6.50
2023-01-03T03:58:49.862Z,6.40
2023-01-03T04:01:39.009Z,6.40
2023-01-03T04:04:33.012Z,6.40
2023-01-03T04:07:19.576Z,6.40
2023-01-03T04:10:07.508Z,6.50
2023-01-03T04:12:53.687Z,6.50
2023-01-03T04:15:39.912Z,6.60
2023-01-03T04:18:27.640Z,6.70
2023-01-03T04:21:20.211Z,6.70
2023-01-03T04:24:07.304Z,7.00
2023-01-03T04:26:53.266Z,6.90
2023-01-03T04:29:40.369Z,7.00
2023-01-03T04:32:26.371Z,7.00
2023-01-03T04:35:16.114Z,7.00
2023-01-03T04:38:02.690Z,7.10
2023-01-03T04:40:49.714Z,7.10
2023-01-03T04:43:55.332Z,7.10
2023-01-03T04:46:41.429Z,7.20
2023-01-03T04:49:27.441Z,7.30
2023-01-03T04:52:17.185Z,7.30
2023-01-03T04:55:07.194Z,7.30
2023-01-03T04:57:53.427Z,7.30
2023-01-03T05:00:40.585Z,7.30
2023-01-03T05:03:28.031Z,7.30
2023-01-03T05:06:14.546Z,7.40
2023-01-03T05:09:00.419Z,7.30
2023-01-03T05:11:46.225Z,7.50
2023-01-03T05:14:32.221Z,7.40
2023-01-03T05:17:20.343Z,7.30
2023-01-03T05:20:39.061Z,7.40
2023-01-03T05:23:43.783Z,7.40
2023-01-03T05:26:29.861Z,7.40
2023-01-03T05:29:20.116Z,7.40
2023-01-03T05:32:15.773Z,7.40
2023-01-03T05:35:02.224Z,7.40
2023-01-03T05:37:52.258Z,7.40
2023-01-03T05:40:42.520Z,7.40
2023-01-03T05:43:28.830Z,7.40
2023-01-03T05:46:15.066Z,7.40
2023-01-03T05:49:01.568Z,7.50
2023-01-03T05:51:47.407Z,7.50
2023-01-03T05:54:33.409Z,7.40
2023-01-03T05:57:19.657Z,7.40
2023-01-03T06:00:06.494Z,7.40
2023-01-03T06:02:53.714Z,7.40
2023-01-03T06:05:49.500Z,7.40
2023-01-03T06:08:38.377Z,7.50
2023-01-03T06:11:24.642Z,7.50
2023-01-03T06:14:10.653Z,7.50
2023-01-03T06:17:14.967Z,7.60
2023-01-03T06:20:00.890Z,7.60
2023-01-03T06:22:46.854Z,7.60
2023-01-03T06:25:32.826Z,7.60
2023-01-03T06:28:25.179Z,7.60
2023-01-03T06:31:12.452Z,7.70
2023-01-03T06:33:58.464Z,7.70
2023-01-03T06:36:44.559Z,7.90
2023-01-03T06:39:31.275Z,7.70
2023-01-03T06:42:35.991Z,7.70
2023-01-03T06:45:40.778Z,7.70
2023-01-03T06:48:45.758Z,7.70
2023-01-03T06:51:50.664Z,7.70
2023-01-03T06:54:38.190Z,7.70
2023-01-03T06:57:26.768Z,7.70
2023-01-03T07:00:14.529Z,7.70
2023-01-03T07:03:05.512Z,7.70
2023-01-03T07:05:55.217Z,7.70
2023-01-03T07:08:47.887Z,7.70
2023-01-03T07:11:39.968Z,7.70
2023-01-03T07:14:28.120Z,7.70
2023-01-03T07:17:20.421Z,7.60
2023-01-03T07:20:07.345Z,7.60
2023-01-03T07:22:54.100Z,7.60
2023-01-03T07:25:41.933Z,7.60
2023-01-03T07:28:28.327Z,7.60
2023-01-03T07:31:14.503Z,7.60
2023-01-03T07:34:01.513Z,7.60
2023-01-03T07:36:50.921Z,7.60
2023-01-03T07:39:37.997Z,7.60
2023-01-03T07:42:42.792Z,7.70
2023-01-03T07:45:28.790Z,7.70
2023-01-03T07:48:15.217Z,7.80
2023-01-03T07:51:02.216Z,7.80
2023-01-03T07:53:53.355Z,7.90
2023-01-03T07:56:40.652Z,8.00
2023-01-03T07:59:26.639Z,8.10
2023-01-03T08:02:12.733Z,8.10
2023-01-03T08:05:01.293Z,8.10
2023-01-03T08:07:48.908Z,8.20
2023-01-03T08:10:53.285Z,8.20
2023-01-03T08:13:40.234Z,8.20
2023-01-03T08:16:27.115Z,8.30
2023-01-03T08:19:13.895Z,8.40
2023-01-03T08:21:59.837Z,8.40
2023-01-03T08:24:45.833Z,8.50
2023-01-03T08:27:32.280Z,8.60
2023-01-03T08:30:18.606Z,8.60
2023-01-03T08:33:07.604Z,8.60
2023-01-03T08:36:05.524Z,8.70
2023-01-03T08:39:00.750Z,8.80
2023-01-03T08:41:52.996Z,8.80
2023-01-03T08:44:45.021Z,8.90
2023-01-03T08:47:31.523Z,8.90
2023-01-03T08:50:18.114Z,9.00
2023-01-03T08:53:05.789Z,9.10
2023-01-03T08:55:52.064Z,9.10
2023-01-03T08:58:40.517Z,9.20
2023-01-03T09:01:26.997Z,9.20
2023-01-03T09:04:13.622Z,9.30
2023-01-03T09:07:00.962Z,9.40
2023-01-03T09:09:47.116Z,9.40
2023-01-03T09:12:33.254Z,9.50
2023-01-03T09:15:19.420Z,9.50
2023-01-03T09:18:05.210Z,9.60
2023-01-03T09:20:52.676Z,9.60
2023-01-03T09:23:38.914Z,9.70
2023-01-03T09:26:25.226Z,9.70
2023-01-03T09:29:11.372Z,9.70
2023-01-03T09:31:58.196Z,9.80
2023-01-03T09:34:46.624Z,9.80
2023-01-03T09:37:32.461Z,9.80
2023-01-03T09:40:18.814Z,9.80
2023-01-03T09:43:19.770Z,9.80
2023-01-03T09:46:17.053Z,9.80
2023-01-03T09:49:06.867Z,9.90
2023-01-03T09:52:11.213Z,9.90
2023-01-03T09:55:15.539Z,9.90
2023-01-03T09:58:20.383Z,9.90
2023-01-03T10:01:36.277Z,9.90
2023-01-03T10:04:45.814Z,9.90
2023-01-03T10:08:18.888Z,9.90
2023-01-03T10:11:52.564Z,9.90
2023-01-03T10:15:06.015Z,10.00
2023-01-03T10:17:58.094Z,10.00
2023-01-03T10:20:55.584Z,10.00
2023-01-03T10:23:43.006Z,10.00
2023-01-03T10:26:33.701Z,10.00
2023-01-03T10:29:25.958Z,10.00
2023-01-03T10:32:33.184Z,10.00
2023-01-03T10:35:24.741Z,10.00
2023-01-03T10:38:15.142Z,10.10
2023-01-03T10:41:03.736Z,10.10
2023-01-03T10:43:58.732Z,10.10
2023-01-03T10:46:50.991Z,10.10
2023-01-03T10:49:37.094Z,10.10
2023-01-03T10:52:23.947Z,10.10
2023-01-03T10:55:28.781Z,10.20
2023-01-03T10:58:28.037Z,10.20
2023-01-03T11:01:25.401Z,10.20
2023-01-03T11:04:19.765Z,10.20
2023-01-03T11:07:08.754Z,10.20
2023-01-03T11:09:57.483Z,10.20
2023-01-03T11:12:43.647Z,10.20
2023-01-03T11:15:38.352Z,10.20
2023-01-03T11:18:27.878Z,10.20
2023-01-03T11:21:25.934Z,10.20
2023-01-03T11:24:31.837Z,10.30
2023-01-03T11:27:26.497Z,10.40
2023-01-03T11:30:30.511Z,10.40
2023-01-03T11:33:16.805Z,10.40
2023-01-03T11:36:08.123Z,10.40
2023-01-03T11:39:15.355Z,10.40
2023-01-03T11:42:35.964Z,10.40
2023-01-03T11:45:48.890Z,10.30
2023-01-03T11:48:59.538Z,10.30
2023-01-03T11:52:10.127Z,10.20
2023-01-03T11:55:16.967Z,10.30
2023-01-03T11:58:25.541Z,10.30
2023-01-03T12:01:24.965Z,10.20
2023-01-03T12:04:34.124Z,10.20
2023-01-03T12:10:54.128Z,10.20
2023-01-03T12:14:14.178Z,10.20
2023-01-03T12:17:31.693Z,10.20
2023-01-03T12:20:32.695Z,10.20
2023-01-03T12:23:31.863Z,10.20
2023-01-03T12:26:17.986Z,10.20
2023-01-03T12:29:19.621Z,10.20
2023-01-03T12:32:31.250Z,10.10
2023-01-03T12:35:51.743Z,10.10
2023-01-03T12:38:42.443Z,10.10
2023-01-03T12:41:55.252Z,10.10
2023-01-03T12:44:47.134Z,10.20
2023-01-03T12:47:46.776Z,10.10
2023-01-03T12:50:49.543Z,10.20
2023-01-03T12:54:18.597Z,10.20
2023-01-03T12:57:26.195Z,10.10
2023-01-03T13:00:20.101Z,10.10
2023-01-03T13:03:39.854Z,10.10
2023-01-03T13:06:31.375Z,10.10
2023-01-03T13:09:31.955Z,10.10
2023-01-03T13:12:25.884Z,10.10
2023-01-03T13:15:37.278Z,10.20
2023-01-03T13:18:23.757Z,10.20
2023-01-03T13:21:54.957Z,10.10
2023-01-03T13:24:46.909Z,10.20
2023-01-03T13:27:50.143Z,10.20
2023-01-03T13:30:38.529Z,10.20
2023-01-03T13:33:24.718Z,10.20
2023-01-03T13:36:11.026Z,10.20
2023-01-03T13:38:59.614Z,10.30
2023-01-03T13:41:53.647Z,10.30
2023-01-03T13:44:39.687Z,10.40
2023-01-03T13:47:40.844Z,10.30
2023-01-03T13:50:29.553Z,10.40
2023-01-03T13:53:18.832Z,10.40
2023-01-03T13:56:17.055Z,10.40
2023-01-03T13:59:34.814Z,10.40
2023-01-03T14:02:56.744Z,10.40
2023-01-03T14:06:05.757Z,10.50
2023-01-03T14:09:07.582Z,10.50
2023-01-03T14:12:17.387Z,10.50
2023-01-03T14:15:25.987Z,10.50
2023-01-03T14:18:28.566Z,10.50
2023-01-03T14:21:25.830Z,10.50
2023-01-03T14:24:19.604Z,10.50
2023-01-03T14:27:17.127Z,10.50
2023-01-03T14:30:05.165Z,10.50
2023-01-03T14:32:51.982Z,10.50
2023-01-03T14:35:41.525Z,10.50
2023-01-03T14:38:30.365Z,10.50
2023-01-03T14:41:30.173Z,10.50
2023-01-03T14:44:17.434Z,10.50
2023-01-03T14:47:07.490Z,10.50
2023-01-03T14:49:53.921Z,10.50
2023-01-03T14:52:42.453Z,10.50
2023-01-03T14:55:32.579Z,10.50
2023-01-03T14:58:29.215Z,10.50
2023-01-03T15:01:16.126Z,10.50
2023-01-03T15:04:02.947Z,10.60
2023-01-03T15:07:09.316Z,10.50
2023-01-03T15:10:11.242Z,10.60
2023-01-03T15:13:02.562Z,10.60
2023-01-03T15:16:00.935Z,10.60
2023-01-03T15:18:47.207Z,10.60
2023-01-03T15:21:33.376Z,10.60
2023-01-03T15:24:23.403Z,10.50
2023-01-03T15:27:34.062Z,10.50
2023-01-03T15:30:24.695Z,10.50
2023-01-03T15:33:33.834Z,10.50
2023-01-03T15:36:23.426Z,10.60
2023-01-03T15:39:20.384Z,10.50
2023-01-03T15:42:45.180Z,10.50
2023-01-03T15:45:43.930Z,10.60
2023-01-03T15:48:35.403Z,10.60
2023-01-03T15:51:21.886Z,10.60
2023-01-03T15:54:16.311Z,10.60
2023-01-03T15:57:11.246Z,10.60
2023-01-03T16:00:01.733Z,10.60
2023-01-03T16:02:51.845Z,10.60
2023-01-03T16:05:37.816Z,10.60
2023-01-03T16:08:38.683Z,10.60
2023-01-03T16:11:33.603Z,10.70
2023-01-03T16:14:24.130Z,10.60
2023-01-03T16:17:24.076Z,10.70
2023-01-03T16:20:15.960Z,10.70
2023-01-03T16:23:02.328Z,10.70
2023-01-03T16:25:48.848Z,10.80
2023-01-03T16:28:35.166Z,10.70
2023-01-03T16:31:30.917Z,10.70
2023-01-03T16:34:21.814Z,10.70
2023-01-03T16:37:10.082Z,10.70
2023-01-03T16:40:02.511Z,10.80
2023-01-03T16:42:48.932Z,10.80
2023-01-03T16:45:43.482Z,10.80
2023-01-03T16:48:44.179Z,10.80
2023-01-03T16:51:33.427Z,10.80
2023-01-03T16:54:25.363Z,10.90
2023-01-03T16:57:17.625Z,10.80
2023-01-03T17:00:04.654Z,10.80
2023-01-03T17:02:51.036Z,10.90
2023-01-03T17:05:38.653Z,10.80
2023-01-03T17:08:41.700Z,10.90
2023-01-03T17:11:27.801Z,10.80
2023-01-03T17:14:19.570Z,10.80
2023-01-03T17:17:16.661Z,10.80
2023-01-03T17:20:13.023Z,10.80
2023-01-03T17:23:00.577Z,10.80
2023-01-03T17:25:46.939Z,10.80
2023-01-03T17:28:35.144Z,10.80
2023-01-03T17:31:23.451Z,10.70
2023-01-03T17:34:29.498Z,10.70
2023-01-03T17:37:18.813Z,10.70
2023-01-03T17:40:29.183Z,10.70
2023-01-03T17:43:20.703Z,10.80
2023-01-03T17:46:36.151Z,10.80
2023-01-03T17:49:25.620Z,10.70
2023-01-03T17:52:27.850Z,10.80
2023-01-03T17:55:24.045Z,10.70
2023-01-03T17:58:16.822Z,10.70
2023-01-03T18:01:02.759Z,10.70
2023-01-03T18:03:48.962Z,10.70
2023-01-03T18:06:35.363Z,10.70
2023-01-03T18:09:22.512Z,10.70
2023-01-03T18:12:15.623Z,10.70
2023-01-03T18:15:01.874Z,10.70
2023-01-03T18:17:52.251Z,10.70
2023-01-03T18:20:38.583Z,10.70
2023-01-03T18:23:30.199Z,10.60
2023-01-03T18:26:16.742Z,10.70
2023-01-03T18:29:04.149Z,10.60
2023-01-03T18:31:52.636Z,10.70
2023-01-03T18:34:39.138Z,10.70
2023-01-03T18:37:37.553Z,10.60
2023-01-03T18:40:29.181Z,10.70
2023-01-03T18:43:17.825Z,10.60
2023-01-03T18:46:04.930Z,10.60
2023-01-03T18:48:51.650Z,10.60
2023-01-03T18:51:37.903Z,10.70
2023-01-03T18:54:26.211Z,10.60
2023-01-03T18:57:12.720Z,10.70
2023-01-03T18:59:58.991Z,10.70
2023-01-03T19:02:45.386Z,10.70
2023-01-03T19:05:32.768Z,10.70
2023-01-03T19:08:20.111Z,10.70
2023-01-03T19:11:12.850Z,10.70
2023-01-03T19:14:02.411Z,10.70
2023-01-03T19:16:48.971Z,10.80
2023-01-03T19:19:34.988Z,10.80
2023-01-03T19:22:29.434Z,10.70
2023-01-03T19:25:27.963Z,10.80
2023-01-03T19:28:14.713Z,10.80
2023-01-03T19:31:00.988Z,10.80
2023-01-03T19:33:49.776Z,10.80
2023-01-03T19:36:35.831Z,10.80
2023-01-03T19:39:25.714Z,10.80
2023-01-03T19:42:51.055Z,10.90
2023-01-03T19:45:41.669Z,10.80
2023-01-03T19:48:28.088Z,10.80
2023-01-03T19:51:14.280Z,10.90
2023-01-03T19:54:00.246Z,10.90
2023-01-03T19:56:46.212Z,10.90
2023-01-03T19:59:35.139Z,10.90
2023-01-03T20:02:33.220Z,10.90
2023-01-03T20:05:25.765Z,10.90
2023-01-03T20:08:12.869Z,10.90
2023-01-03T20:10:59.231Z,10.90
2023-01-03T20:13:47.078Z,11.00
2023-01-03T20:16:43.648Z,11.00
2023-01-03T20:19:30.636Z,11.00
2023-01-03T20:22:53.408Z,11.00
2023-01-03T20:25:28.243Z,11.00
2023-01-03T20:28:34.788Z,11.00
2023-01-03T20:31:21.351Z,11.00
2023-01-03T20:34:10.087Z,11.10
2023-01-03T20:36:56.498Z,11.10
2023-01-03T20:39:44.138Z,11.10
2023-01-03T20:42:30.180Z,11.20
2023-01-03T20:45:17.171Z,11.20
2023-01-03T20:48:03.339Z,11.20
2023-01-03T20:50:49.870Z,11.20
2023-01-03T20:53:41.292Z,11.30
2023-01-03T20:56:29.549Z,11.30
2023-01-03T20:59:17.893Z,11.40
2023-01-03T21:02:04.185Z,11.40
2023-01-03T21:04:50.809Z,11.40
2023-01-03T21:07:55.404Z,11.40
2023-01-03T21:10:43.504Z,11.50
2023-01-03T21:13:29.661Z,11.50
2023-01-03T21:16:30.039Z,11.50
2023-01-03T21:19:22.007Z,11.60
2023-01-03T21:22:19.426Z,11.60
2023-01-03T21:25:07.195Z,11.70
2023-01-03T21:27:54.048Z,11.70
2023-01-03T21:30:40.925Z,11.70
2023-01-03T21:33:27.063Z,11.80
2023-01-03T21:36:21.051Z,11.80
2023-01-03T21:39:10.430Z,11.80
2023-01-03T21:42:15.388Z,11.90
2023-01-03T21:45:01.505Z,12.00
2023-01-03T21:47:47.272Z,11.90
2023-01-03T21:50:33.908Z,11.90
2023-01-03T21:53:22.155Z,11.90
2023-01-03T21:56:22.411Z,12.00
2023-01-03T21:59:08.901Z,12.00
2023-01-03T22:02:13.593Z,12.00
2023-01-03T22:04:59.872Z,12.10
2023-01-03T22:07:49.114Z,12.10
2023-01-03T22:10:37.025Z,12.10
2023-01-03T22:13:23.371Z,12.20
2023-01-03T22:16:10.101Z,12.20
2023-01-03T22:18:56.309Z,12.20
2023-01-03T22:21:42.151Z,12.20
2023-01-03T22:24:28.726Z,12.20
2023-01-03T22:27:15.029Z,12.30
2023-01-03T22:30:01.326Z,12.30
2023-01-03T22:32:48.050Z,12.30
2023-01-03T22:35:33.992Z,12.30
2023-01-03T22:38:20.176Z,12.30
2023-01-03T22:41:13.467Z,12.40
2023-01-03T22:43:59.523Z,12.40
2023-01-03T22:46:45.359Z,12.40
2023-01-03T22:49:31.521Z,12.40
2023-01-03T22:52:18.049Z,12.40
2023-01-03T22:55:04.433Z,12.40
2023-01-03T22:57:50.628Z,12.40
2023-01-03T23:00:39.205Z,12.30
2023-01-03T23:03:25.418Z,12.30
2023-01-03T23:06:19.349Z,12.30
2023-01-03T23:09:05.840Z,12.30
2023-01-03T23:12:13.109Z,12.30
2023-01-03T23:14:59.569Z,12.30
2023-01-03T23:17:57.948Z,12.30
2023-01-03T23:20:48.888Z,12.30
2023-01-03T23:23:34.896Z,12.30
2023-01-03T23:26:20.811Z,12.30
2023-01-03T23:29:06.929Z,12.30
2023-01-03T23:31:52.857Z,12.30
2023-01-03T23:34:39.848Z,12.30
2023-01-03T23:37:30.255Z,12.30
2023-01-03T23:40:19.066Z,12.30
2023-01-03T23:43:05.570Z,12.30
2023-01-03T23:45:57.900Z,12.40
2023-01-03T23:48:44.709Z,12.40
2023-01-03T23:51:30.773Z,12.40
2023-01-03T23:54:16.886Z,12.40
2023-01-03T23:57:03.198Z,12.40
2023-01-03T23:59:49.553Z,12.50
